Pagrindinis puslapis
METAR-TAF:

METAR-TAF

Oro uostai :

Fort Stockton-Pecos County Airport

Fort Stockton, Teksasas, Jungtinės Amerikos Valstijos

platuma: 30-54-43N, ilguma: 102-55-00W, Aukštis: 917 m

Dabartinis oras

Ataskaita buvo paskelbta 17 minutes, ne 12:53 UTC
Vėjas 11 kt iš Pietvakarių
Temperatūra 12°C
Drėgmė 58%
Slėgis 1019 hPa
Matomumas: 16.1 km

METAR: KFST 301253Z AUTO 22011KT 10SM 12/04 A3008 RMK AO2 SLP154 T01220044 TSNO $

Laikas: 07:10 (13:10 UTC)

Prognozė

Ataskaita buvo paskelbta 1 valandą ir 50 minutes, ne 11:20 UTC
Prognozė galioja nuo 30 metu 12 UTC su 01 metu 12 UTC
Vėjas 10 kt iš Pietvakarių
Matomumas: 10 km
Su prošvaistėmis ne aukštis 25000 ft

TAF: KFST 301120Z 3012/0112 22010KT P6SM BKN250

Orai ataskaitas ir orų prognozės (METAR, TAF).

turimą stotys yra geltonos ir raudonos taškus žemėlapyje.

Perkelti pele per norėdami pamatyti stoties vardą.

Tada spustelėkite, norėdami matyti oro stebėjimo ir prognozės.

Norėdami pakeisti žemėlapį: spustelėkite ant žalios mygtukų su juodo kryžiaus žemyn,; žalią mygtuką su brūkšneliu, jei norite nutolinti; arba žalių rodyklių gretimoms žemėlapius.


METAR-TAF: